createdAt,value
2022-12-26T00:00:16.365Z,8.51
2022-12-26T00:02:42.882Z,7.89
2022-12-26T00:05:09.281Z,7.62
2022-12-26T00:07:35.718Z,6.78
2022-12-26T00:10:05.026Z,6.17
2022-12-26T00:12:32.982Z,5.83
2022-12-26T00:14:59.361Z,5.21
2022-12-26T00:17:25.829Z,4.97
2022-12-26T00:19:57.440Z,4.88
2022-12-26T00:22:23.840Z,6.01
2022-12-26T00:24:51.700Z,5.98
2022-12-26T00:27:18.057Z,6.12
2022-12-26T00:29:44.411Z,6.38
2022-12-26T00:32:10.773Z,6.24
2022-12-26T00:34:38.245Z,6.37
2022-12-26T00:37:04.650Z,5.40
2022-12-26T00:39:31.085Z,4.99
2022-12-26T00:42:04.687Z,6.62
2022-12-26T00:44:31.073Z,5.61
2022-12-26T00:46:57.488Z,6.28
2022-12-26T00:49:23.996Z,6.40
2022-12-26T00:51:55.552Z,6.75
2022-12-26T00:54:21.946Z,6.93
2022-12-26T00:56:48.308Z,7.77
2022-12-26T00:59:14.898Z,7.83
2022-12-26T01:01:41.431Z,8.41
2022-12-26T01:04:08.118Z,9.07
2022-12-26T01:06:34.611Z,7.67
2022-12-26T01:09:00.949Z,7.85
2022-12-26T01:11:27.385Z,7.92
2022-12-26T01:13:53.799Z,8.27
2022-12-26T01:16:20.308Z,7.66
2022-12-26T01:18:46.905Z,6.61
2022-12-26T01:21:13.300Z,6.50
2022-12-26T01:23:39.847Z,5.40
2022-12-26T01:26:17.200Z,5.37
2022-12-26T01:28:46.382Z,5.40
2022-12-26T01:31:12.771Z,5.18
2022-12-26T01:33:39.182Z,5.17
2022-12-26T01:36:05.633Z,5.25
2022-12-26T01:38:32.015Z,5.00
2022-12-26T01:40:58.356Z,5.23
2022-12-26T01:43:24.725Z,5.80
2022-12-26T01:45:52.250Z,6.38
2022-12-26T01:48:18.783Z,6.93
2022-12-26T01:50:45.134Z,7.64
2022-12-26T01:53:11.543Z,7.16
2022-12-26T01:55:37.894Z,6.32
2022-12-26T01:58:04.358Z,6.13
2022-12-26T02:00:30.779Z,6.91
2022-12-26T02:02:57.215Z,7.00
2022-12-26T02:05:23.772Z,6.89
2022-12-26T02:07:50.181Z,6.40
2022-12-26T02:10:16.631Z,6.40
2022-12-26T02:12:43.047Z,6.60
2022-12-26T02:15:09.442Z,6.94
2022-12-26T02:17:35.882Z,6.69
2022-12-26T02:20:02.273Z,5.88
2022-12-26T02:22:28.644Z,4.97
2022-12-26T02:24:55.072Z,5.14
2022-12-26T02:27:21.566Z,5.08
2022-12-26T02:29:47.995Z,4.72
2022-12-26T02:32:14.513Z,4.43
2022-12-26T02:34:41.091Z,5.56
2022-12-26T02:37:07.449Z,4.83
2022-12-26T02:39:43.755Z,5.12
2022-12-26T02:42:12.738Z,5.16
2022-12-26T02:44:39.164Z,4.83
2022-12-26T02:47:05.684Z,5.06
2022-12-26T02:49:32.051Z,4.84
2022-12-26T02:51:58.496Z,4.96
2022-12-26T02:54:24.844Z,5.22
2022-12-26T02:56:51.265Z,5.03
2022-12-26T02:59:17.717Z,4.66
2022-12-26T03:01:44.256Z,4.54
2022-12-26T03:04:10.664Z,4.57
2022-12-26T03:06:37.048Z,4.60
2022-12-26T03:09:03.482Z,4.25
2022-12-26T03:11:29.937Z,3.73
2022-12-26T03:13:56.286Z,3.65
2022-12-26T03:16:22.805Z,3.66
2022-12-26T03:18:57.813Z,3.77
2022-12-26T03:21:26.751Z,3.95
2022-12-26T03:23:53.317Z,3.68
2022-12-26T03:26:19.699Z,3.85
2022-12-26T03:28:46.067Z,3.98
2022-12-26T03:31:12.524Z,4.13
2022-12-26T03:33:39.138Z,4.11
2022-12-26T03:36:05.521Z,4.52
2022-12-26T03:38:31.976Z,4.98
2022-12-26T03:40:58.366Z,5.04
2022-12-26T03:43:24.801Z,5.17
2022-12-26T03:45:51.349Z,5.30
2022-12-26T03:48:17.803Z,5.03
2022-12-26T03:50:44.169Z,5.42
2022-12-26T03:53:10.572Z,5.30
2022-12-26T03:55:37.578Z,4.97
2022-12-26T03:58:03.978Z,5.03
2022-12-26T04:00:30.337Z,5.02
2022-12-26T04:02:56.674Z,4.72
2022-12-26T04:05:23.106Z,4.77
2022-12-26T04:07:56.558Z,4.91
2022-12-26T04:10:24.782Z,4.51
2022-12-26T04:12:51.155Z,4.37
2022-12-26T04:15:17.574Z,4.83
2022-12-26T04:17:43.922Z,4.54
2022-12-26T04:20:10.315Z,5.50
2022-12-26T04:22:36.726Z,5.84
2022-12-26T04:25:03.120Z,5.17
2022-12-26T04:27:29.493Z,5.27
2022-12-26T04:29:55.883Z,5.56
2022-12-26T04:32:22.388Z,4.88
2022-12-26T04:34:48.818Z,5.22
2022-12-26T04:37:15.249Z,6.62
2022-12-26T04:39:41.621Z,4.85
2022-12-26T04:42:07.990Z,5.11
2022-12-26T04:44:34.379Z,5.54
2022-12-26T04:47:00.951Z,5.16
2022-12-26T04:49:27.421Z,5.13
2022-12-26T04:51:53.811Z,4.84
2022-12-26T04:54:20.356Z,4.78
2022-12-26T04:56:46.764Z,4.70
2022-12-26T04:59:13.154Z,4.85
2022-12-26T05:01:39.635Z,4.52
2022-12-26T05:04:06.224Z,4.98
2022-12-26T05:06:32.623Z,4.43
2022-12-26T05:08:59.015Z,4.04
2022-12-26T05:11:25.365Z,4.07
2022-12-26T05:13:51.738Z,3.91
2022-12-26T05:16:18.216Z,3.95
2022-12-26T05:18:44.559Z,4.93
2022-12-26T05:21:11.533Z,6.57
2022-12-26T05:23:38.067Z,4.11
2022-12-26T05:26:04.454Z,4.57
2022-12-26T05:28:31.029Z,4.67
2022-12-26T05:30:57.428Z,4.03
2022-12-26T05:33:23.847Z,4.19
2022-12-26T05:35:50.310Z,4.14
2022-12-26T05:38:16.651Z,4.51
2022-12-26T05:40:43.082Z,4.30
2022-12-26T05:43:09.473Z,4.52
2022-12-26T05:45:35.849Z,4.46
2022-12-26T05:48:02.362Z,4.46
2022-12-26T05:50:28.712Z,4.28
2022-12-26T05:52:55.241Z,4.60
2022-12-26T05:55:21.574Z,4.85
2022-12-26T05:57:47.995Z,7.17
2022-12-26T06:00:14.340Z,4.90
2022-12-26T06:02:40.772Z,4.57
2022-12-26T06:05:07.209Z,4.68
2022-12-26T06:07:33.762Z,4.75
2022-12-26T06:10:00.126Z,4.50
2022-12-26T06:12:26.510Z,4.76
2022-12-26T06:14:52.903Z,4.97
2022-12-26T06:17:19.297Z,5.19
2022-12-26T06:19:47.024Z,4.81
2022-12-26T06:22:13.836Z,5.12
2022-12-26T06:24:40.360Z,5.00
2022-12-26T06:27:06.750Z,4.93
2022-12-26T06:29:33.171Z,5.06
2022-12-26T06:31:59.626Z,5.27
2022-12-26T06:34:26.057Z,4.74
2022-12-26T06:36:52.573Z,4.67
2022-12-26T06:39:18.943Z,4.66
2022-12-26T06:41:45.351Z,4.81
2022-12-26T06:44:17.752Z,5.03
2022-12-26T06:46:44.745Z,5.01
2022-12-26T06:49:11.215Z,4.84
2022-12-26T06:51:37.550Z,4.83
2022-12-26T06:54:04.011Z,4.97
2022-12-26T06:56:30.393Z,4.90
2022-12-26T06:58:56.954Z,4.87
2022-12-26T07:01:23.396Z,4.88
2022-12-26T07:03:51.940Z,4.91
2022-12-26T07:06:18.542Z,5.54
2022-12-26T07:08:44.892Z,4.60
2022-12-26T07:11:11.249Z,4.79
2022-12-26T07:13:39.820Z,4.61
2022-12-26T07:16:06.180Z,4.54
2022-12-26T07:18:32.715Z,4.70
2022-12-26T07:20:59.059Z,4.90
2022-12-26T07:23:25.393Z,5.22
2022-12-26T07:25:51.756Z,5.14
2022-12-26T07:28:18.172Z,5.03
2022-12-26T07:30:44.558Z,4.58
2022-12-26T07:33:10.895Z,4.45
2022-12-26T07:35:37.599Z,4.92
2022-12-26T07:38:03.974Z,5.13
2022-12-26T07:40:30.328Z,5.02
2022-12-26T07:42:56.939Z,4.68
2022-12-26T07:45:23.364Z,4.94
2022-12-26T07:47:49.821Z,4.80
2022-12-26T07:50:16.208Z,4.69
2022-12-26T07:52:42.617Z,4.94
2022-12-26T07:55:08.955Z,4.92
2022-12-26T07:57:50.771Z,4.78
2022-12-26T08:00:17.127Z,4.89
2022-12-26T08:02:44.638Z,5.05
2022-12-26T08:05:11.102Z,4.90
2022-12-26T08:07:37.715Z,4.69
2022-12-26T08:10:04.246Z,4.58
2022-12-26T08:12:30.812Z,4.54
2022-12-26T08:14:57.299Z,4.72
2022-12-26T08:17:23.631Z,4.52
2022-12-26T08:19:50.045Z,4.63
2022-12-26T08:22:16.382Z,4.45
2022-12-26T08:24:42.803Z,4.38
2022-12-26T08:27:09.192Z,4.56
2022-12-26T08:29:35.561Z,4.58
2022-12-26T08:32:07.206Z,4.42
2022-12-26T08:34:33.554Z,4.64
2022-12-26T08:37:00.012Z,4.35
2022-12-26T08:39:27.205Z,4.46
2022-12-26T08:42:00.692Z,4.87
2022-12-26T08:44:28.306Z,4.78
2022-12-26T08:46:55.471Z,4.80
2022-12-26T08:49:21.847Z,4.67
2022-12-26T08:51:48.182Z,4.61
2022-12-26T08:54:14.523Z,4.68
2022-12-26T08:56:40.949Z,5.08
2022-12-26T08:59:07.610Z,4.86
2022-12-26T09:01:34.306Z,7.02
2022-12-26T09:04:00.855Z,5.49
2022-12-26T09:06:29.623Z,4.48
2022-12-26T09:08:56.135Z,4.54
2022-12-26T09:11:22.627Z,4.75
2022-12-26T09:13:48.990Z,4.43
2022-12-26T09:16:15.382Z,4.56
2022-12-26T09:18:41.749Z,4.71
2022-12-26T09:21:08.119Z,4.51
2022-12-26T09:23:34.581Z,4.39
2022-12-26T09:26:01.139Z,4.75
2022-12-26T09:28:27.531Z,5.50
2022-12-26T09:30:56.992Z,5.02
2022-12-26T09:33:23.390Z,5.30
2022-12-26T09:35:51.154Z,7.25
2022-12-26T09:41:00.691Z,4.91
2022-12-26T09:43:27.635Z,4.99
2022-12-26T09:45:54.043Z,4.73
2022-12-26T09:48:31.683Z,4.79
2022-12-26T09:51:02.181Z,6.15
2022-12-26T09:53:28.608Z,5.62
2022-12-26T09:55:55.005Z,4.44
2022-12-26T09:58:21.417Z,4.51
2022-12-26T10:00:50.565Z,4.46
2022-12-26T10:03:17.127Z,4.35
2022-12-26T10:05:43.545Z,5.00
2022-12-26T10:08:13.107Z,3.97
2022-12-26T10:10:39.533Z,4.17
2022-12-26T10:13:05.938Z,4.15
2022-12-26T10:15:32.468Z,4.98
2022-12-26T10:18:09.526Z,5.24
2022-12-26T10:20:35.998Z,6.33
2022-12-26T10:23:02.532Z,6.97
2022-12-26T10:25:33.742Z,4.76
2022-12-26T10:28:01.614Z,4.62
2022-12-26T10:30:28.007Z,4.00
2022-12-26T10:32:54.395Z,4.14
2022-12-26T10:38:10.986Z,4.41
2022-12-26T10:40:37.912Z,4.01
2022-12-26T10:43:04.306Z,5.13
2022-12-26T10:45:34.179Z,5.40
2022-12-26T10:48:00.576Z,4.29
2022-12-26T10:50:27.825Z,4.44
2022-12-26T10:52:54.456Z,4.75
2022-12-26T10:55:29.303Z,4.52
2022-12-26T10:57:57.787Z,4.47
2022-12-26T11:00:24.100Z,4.46
2022-12-26T11:02:50.636Z,4.82
2022-12-26T11:08:03.492Z,4.03
2022-12-26T11:10:29.865Z,5.91
2022-12-26T11:13:02.363Z,6.23
2022-12-26T11:15:31.550Z,4.81
2022-12-26T11:17:57.900Z,4.57
2022-12-26T11:20:24.336Z,4.59
2022-12-26T11:22:50.730Z,6.34
2022-12-26T11:25:20.162Z,8.42
2022-12-26T11:27:46.622Z,8.08
2022-12-26T11:30:13.049Z,7.19
2022-12-26T11:32:39.483Z,6.33
2022-12-26T11:35:08.935Z,7.68
2022-12-26T11:37:35.394Z,5.89
2022-12-26T11:40:06.203Z,6.15
2022-12-26T11:42:32.638Z,6.62
2022-12-26T11:44:59.039Z,6.59
2022-12-26T11:47:25.518Z,6.64
2022-12-26T11:49:51.871Z,6.38
2022-12-26T11:52:18.234Z,7.23
2022-12-26T11:54:44.619Z,6.88
2022-12-26T11:57:11.041Z,7.21
2022-12-26T11:59:38.158Z,7.49
2022-12-26T12:02:04.594Z,7.88
2022-12-26T12:04:31.092Z,5.53
2022-12-26T12:06:58.961Z,5.49
2022-12-26T12:09:31.409Z,5.69
2022-12-26T12:11:57.832Z,5.68
2022-12-26T12:14:27.107Z,5.50
2022-12-26T12:16:53.528Z,5.77
2022-12-26T12:19:19.957Z,5.36
2022-12-26T12:21:46.395Z,5.20
2022-12-26T12:24:12.852Z,5.18
2022-12-26T12:26:39.443Z,4.70
2022-12-26T12:29:06.951Z,4.48
2022-12-26T12:31:33.450Z,4.72
2022-12-26T12:34:05.968Z,5.21
2022-12-26T12:36:38.211Z,5.06
2022-12-26T12:39:04.595Z,5.95
2022-12-26T12:41:31.052Z,6.82
2022-12-26T12:46:48.001Z,4.86
2022-12-26T12:49:14.524Z,5.94
2022-12-26T12:51:41.053Z,15.35
2022-12-26T12:56:48.353Z,7.58
2022-12-26T12:59:14.725Z,7.69
2022-12-26T13:01:41.218Z,6.75
2022-12-26T13:04:07.931Z,6.49
2022-12-26T13:06:34.442Z,5.09
2022-12-26T13:09:00.777Z,4.80
2022-12-26T13:11:33.479Z,4.50
2022-12-26T13:13:59.908Z,4.48
2022-12-26T13:16:26.403Z,4.77
2022-12-26T13:18:52.927Z,4.57
2022-12-26T13:21:19.327Z,4.38
2022-12-26T13:23:45.797Z,6.06
2022-12-26T13:26:12.231Z,7.93
2022-12-26T13:28:38.628Z,6.48
2022-12-26T13:31:04.992Z,5.63
2022-12-26T13:33:31.491Z,5.65
2022-12-26T13:36:04.106Z,5.28
2022-12-26T13:38:30.515Z,5.67
2022-12-26T13:40:56.888Z,5.95
2022-12-26T13:43:23.389Z,5.73
2022-12-26T13:45:52.916Z,4.87
2022-12-26T13:48:19.435Z,5.26
2022-12-26T13:50:50.029Z,5.42
2022-12-26T13:53:21.478Z,5.37
2022-12-26T13:55:47.849Z,5.05
2022-12-26T13:58:17.172Z,5.35
2022-12-26T14:00:43.651Z,5.50
2022-12-26T14:03:19.240Z,5.08
2022-12-26T14:05:48.820Z,5.96
2022-12-26T14:08:15.398Z,6.59
2022-12-26T14:10:41.787Z,6.15
2022-12-26T14:13:08.213Z,5.63
2022-12-26T14:15:38.982Z,5.39
2022-12-26T14:18:05.331Z,6.23
2022-12-26T14:20:37.206Z,8.28
2022-12-26T14:23:05.555Z,6.80
2022-12-26T14:25:38.013Z,6.37
2022-12-26T14:28:04.587Z,5.93
2022-12-26T14:30:38.421Z,6.42
2022-12-26T14:33:04.926Z,6.47
2022-12-26T14:35:34.060Z,15.05
2022-12-26T14:38:01.726Z,11.04
2022-12-26T14:40:28.095Z,7.21
2022-12-26T14:42:54.528Z,6.42
2022-12-26T14:45:20.892Z,6.14
2022-12-26T14:47:47.241Z,5.72
2022-12-26T14:50:13.761Z,5.94
2022-12-26T14:52:42.517Z,8.74
2022-12-26T14:55:11.082Z,6.98
2022-12-26T14:57:37.455Z,6.42
2022-12-26T15:00:04.145Z,6.19
2022-12-26T15:02:30.752Z,6.24
2022-12-26T15:04:57.263Z,5.68
2022-12-26T15:07:23.840Z,5.85
2022-12-26T15:09:50.235Z,6.36
2022-12-26T15:12:16.664Z,6.30
2022-12-26T15:14:43.089Z,5.89
2022-12-26T15:17:09.527Z,5.84
2022-12-26T15:19:35.944Z,6.12
2022-12-26T15:22:02.385Z,6.30
2022-12-26T15:25:08.230Z,6.71
2022-12-26T15:27:15.221Z,5.92
2022-12-26T15:29:41.600Z,6.79
2022-12-26T15:32:08.005Z,7.09
2022-12-26T15:34:34.355Z,7.88
2022-12-26T15:37:00.791Z,9.39
2022-12-26T15:39:27.218Z,7.70
2022-12-26T15:41:53.592Z,6.93
2022-12-26T15:44:19.963Z,8.97
2022-12-26T15:46:46.328Z,7.51
2022-12-26T15:49:12.739Z,6.06
2022-12-26T15:51:39.109Z,6.17
2022-12-26T15:54:05.657Z,8.18
2022-12-26T15:56:32.035Z,8.11
2022-12-26T15:58:58.371Z,8.51
2022-12-26T16:01:24.972Z,7.05
2022-12-26T16:03:51.365Z,7.05
2022-12-26T16:06:17.775Z,6.29
2022-12-26T16:08:44.148Z,6.60
2022-12-26T16:11:10.548Z,9.40
2022-12-26T16:13:37.010Z,10.08
2022-12-26T16:16:03.473Z,7.07
2022-12-26T16:18:29.812Z,7.20
2022-12-26T16:20:56.174Z,6.40
2022-12-26T16:23:22.622Z,5.81
2022-12-26T16:25:49.003Z,5.80
2022-12-26T16:28:15.532Z,6.58
2022-12-26T16:30:41.858Z,6.64
2022-12-26T16:33:08.222Z,6.76
2022-12-26T16:35:34.632Z,5.79
2022-12-26T16:38:01.043Z,5.90
2022-12-26T16:40:27.444Z,5.50
2022-12-26T16:42:53.808Z,6.94
2022-12-26T16:45:20.171Z,6.71
2022-12-26T16:47:46.625Z,7.52
2022-12-26T16:50:13.131Z,10.75
2022-12-26T16:52:46.327Z,14.82
2022-12-26T16:55:13.178Z,10.35
2022-12-26T16:57:39.512Z,11.60
2022-12-26T17:00:05.937Z,8.93
2022-12-26T17:02:32.463Z,12.09
2022-12-26T17:04:59.029Z,3.24
2022-12-26T17:07:25.435Z,4.05
2022-12-26T17:09:51.803Z,5.20
2022-12-26T17:12:18.221Z,5.26
2022-12-26T17:14:44.566Z,2.90
2022-12-26T17:17:10.954Z,2.93
2022-12-26T17:19:37.322Z,2.20
2022-12-26T17:22:03.694Z,2.43
2022-12-26T17:24:30.078Z,2.76
2022-12-26T17:26:56.418Z,2.35
2022-12-26T17:29:22.789Z,3.01
2022-12-26T17:31:49.244Z,2.88
2022-12-26T17:34:15.772Z,2.44
2022-12-26T17:39:28.502Z,1.65
2022-12-26T17:41:54.876Z,2.01
2022-12-26T17:44:21.317Z,2.02
2022-12-26T17:46:47.816Z,1.97
2022-12-26T17:49:14.232Z,2.15
2022-12-26T17:51:40.621Z,2.39
2022-12-26T17:54:07.091Z,2.56
2022-12-26T17:56:33.616Z,2.37
2022-12-26T17:59:00.084Z,2.23
2022-12-26T18:01:26.600Z,1.82
2022-12-26T18:03:53.248Z,1.57
2022-12-26T18:06:19.630Z,2.06
2022-12-26T18:08:45.957Z,2.33
2022-12-26T18:11:12.433Z,6.68
2022-12-26T18:13:38.959Z,2.93
2022-12-26T18:16:05.491Z,1.61
2022-12-26T18:18:31.837Z,1.68
2022-12-26T18:20:58.211Z,1.80
2022-12-26T18:23:24.595Z,1.09
2022-12-26T18:25:54.451Z,1.31
2022-12-26T18:28:21.216Z,2.10
2022-12-26T18:30:47.583Z,2.23
2022-12-26T18:33:14.403Z,2.69
2022-12-26T18:35:40.733Z,1.97
2022-12-26T18:38:07.102Z,2.17
2022-12-26T18:40:36.238Z,3.01
2022-12-26T18:43:02.600Z,2.51
2022-12-26T18:45:29.042Z,1.65
2022-12-26T18:47:55.543Z,0.82
2022-12-26T18:50:21.931Z,1.67
2022-12-26T18:52:53.290Z,1.24
2022-12-26T18:55:20.270Z,3.41
2022-12-26T18:57:46.625Z,5.58
2022-12-26T19:00:12.956Z,1.29
2022-12-26T19:02:39.346Z,5.29
2022-12-26T19:05:05.694Z,9.24
2022-12-26T19:07:32.034Z,3.33
2022-12-26T19:09:58.419Z,3.53
2022-12-26T19:12:24.796Z,3.67
2022-12-26T19:14:51.152Z,2.06
2022-12-26T19:17:17.511Z,3.45
2022-12-26T19:19:43.844Z,4.05
2022-12-26T19:22:10.222Z,2.10
2022-12-26T19:24:36.596Z,5.00
2022-12-26T19:27:04.977Z,3.07
2022-12-26T19:29:31.453Z,2.16
2022-12-26T19:31:59.156Z,1.15
2022-12-26T19:34:25.715Z,2.68
2022-12-26T19:36:52.054Z,1.12
2022-12-26T19:39:18.524Z,1.97
2022-12-26T19:41:44.923Z,1.42
2022-12-26T19:44:11.272Z,2.37
2022-12-26T19:46:37.629Z,4.66
2022-12-26T19:49:03.994Z,3.54
2022-12-26T19:51:30.373Z,2.45
2022-12-26T19:53:56.732Z,1.63
2022-12-26T19:56:23.083Z,1.22
2022-12-26T19:58:54.555Z,1.03
2022-12-26T20:01:22.736Z,1.41
2022-12-26T20:03:49.223Z,1.97
2022-12-26T20:06:15.546Z,3.78
2022-12-26T20:08:41.917Z,5.05
2022-12-26T20:11:08.443Z,3.14
2022-12-26T20:13:34.780Z,3.62
2022-12-26T20:16:01.172Z,3.97
2022-12-26T20:18:28.151Z,2.25
2022-12-26T20:20:54.497Z,1.11
2022-12-26T20:23:20.839Z,1.37
2022-12-26T20:25:49.471Z,1.44
2022-12-26T20:28:15.838Z,1.76
2022-12-26T20:30:42.250Z,1.55
2022-12-26T20:33:08.587Z,4.16
2022-12-26T20:35:34.924Z,3.36
2022-12-26T20:38:01.329Z,2.68
2022-12-26T20:40:27.677Z,2.03
2022-12-26T20:42:54.015Z,1.29
2022-12-26T20:45:20.367Z,1.38
2022-12-26T20:47:46.686Z,1.59
2022-12-26T20:50:13.096Z,2.76
2022-12-26T20:52:39.662Z,2.10
2022-12-26T20:55:06.072Z,3.15
2022-12-26T20:57:32.613Z,3.61
2022-12-26T20:59:58.945Z,2.92
2022-12-26T21:02:25.445Z,1.88
2022-12-26T21:04:51.918Z,1.82
2022-12-26T21:07:18.281Z,2.49
2022-12-26T21:09:46.679Z,4.46
2022-12-26T21:12:13.227Z,3.98
2022-12-26T21:14:39.689Z,6.44
2022-12-26T21:17:07.488Z,7.75
2022-12-26T21:19:33.901Z,9.17
2022-12-26T21:22:00.477Z,5.01
2022-12-26T21:24:26.880Z,3.32
2022-12-26T21:27:00.533Z,1.78
2022-12-26T21:29:26.966Z,1.10
2022-12-26T21:31:53.363Z,1.27
2022-12-26T21:34:19.704Z,1.54
2022-12-26T21:36:46.201Z,2.00
2022-12-26T21:39:12.529Z,2.60
2022-12-26T21:41:38.890Z,1.89
2022-12-26T21:44:05.351Z,1.09
2022-12-26T21:46:31.913Z,1.28
2022-12-26T21:51:45.289Z,0.98
2022-12-26T21:54:11.702Z,1.04
2022-12-26T21:56:38.145Z,1.18
2022-12-26T21:59:04.582Z,1.37
2022-12-26T22:01:31.117Z,1.56
2022-12-26T22:04:00.188Z,1.35
2022-12-26T22:06:28.993Z,1.16
2022-12-26T22:08:55.357Z,1.11
2022-12-26T22:11:24.823Z,1.39
2022-12-26T22:13:51.351Z,2.68
2022-12-26T22:16:17.798Z,2.14
2022-12-26T22:18:44.303Z,4.23
2022-12-26T22:21:10.685Z,1.15
2022-12-26T22:23:37.061Z,1.64
2022-12-26T22:26:03.466Z,1.57
2022-12-26T22:28:29.952Z,1.08
2022-12-26T22:31:00.031Z,0.90
2022-12-26T22:33:26.553Z,1.50
2022-12-26T22:35:52.976Z,2.07
2022-12-26T22:38:19.391Z,1.13
2022-12-26T22:40:45.845Z,0.99
2022-12-26T22:43:12.218Z,1.04
2022-12-26T22:45:45.910Z,0.93
2022-12-26T22:48:13.320Z,0.92
2022-12-26T22:50:39.725Z,0.76
2022-12-26T22:53:08.884Z,1.00
2022-12-26T22:55:35.268Z,1.10
2022-12-26T22:58:02.512Z,0.94
2022-12-26T23:00:29.182Z,1.08
2022-12-26T23:02:55.825Z,0.99
2022-12-26T23:05:22.353Z,0.75
2022-12-26T23:10:40.033Z,0.72
2022-12-26T23:13:06.585Z,0.71
2022-12-26T23:15:33.015Z,0.69
2022-12-26T23:17:59.404Z,0.63
2022-12-26T23:20:25.792Z,0.76
2022-12-26T23:22:52.237Z,0.52
2022-12-26T23:25:20.030Z,0.54
2022-12-26T23:27:49.528Z,0.53
2022-12-26T23:30:18.810Z,0.49
2022-12-26T23:32:45.174Z,0.54
2022-12-26T23:35:11.599Z,0.53
2022-12-26T23:37:38.038Z,0.72
2022-12-26T23:40:04.425Z,0.94
2022-12-26T23:42:30.904Z,0.67
2022-12-26T23:45:01.457Z,0.75
2022-12-26T23:47:27.879Z,0.79
2022-12-26T23:49:54.320Z,0.82
2022-12-26T23:52:24.208Z,0.91
2022-12-26T23:54:56.080Z,0.88
2022-12-26T23:57:22.519Z,0.97
2022-12-26T23:59:56.230Z,0.72
